バンダルスリブガワン の空港の天気 - METARとTAF

ブルネイ国際空港 ( WBSB / BWN ) - ブルネイ バンダルスリブガワン
飛行場実況気象(Metar)
観測時間05/23 08:30 BNT (05/23 00:30 UTC)
風向・風速南 2m/s
視程10km以上
天気現象
少しの雲 雲底高度 210m
全天の4割程度の雲 雲底高度 4270m
全天の8割程度の雲 雲底高度 9140m
気温28℃
湿度89%
気圧1009hPa
METARWBSB 230030Z 17003KT 9999 FEW007 SCT140 BKN300 28/26 Q1009 NOSIG
過去の天気等 Google飛行場航空写真 Wunderground天気予報

過去48時間のMETAR

飛行場予報(TAF)
発表時間: 5/23 07:00 BNT (5/22 23:00 UTC)
予報対象時間: 23日8時 BNT ~ 24日14時 BNT
風向・風速南西 1m/s
視程10km以上
少しの雲 雲底高度 430m
全天の8割程度の雲 雲底高度 4,270m
23日10時 BNT ~ 23日12時 BNT に徐々に
風向・風速北北西 5m/s
全天の4割程度の雲 雲底高度 460m
少しの積乱雲 雲底高度 490m
23日12時 BNT ~ 23日14時 BNT に 確率 40% で一時的に
視程6,000m
天気現象弱い雷雨
TAF WBSB 222300Z 2300/2406 22002KT 9999 FEW014 BKN140
BECMG 2302/2304 33009KT SCT015 FEW016CB
PROB40 TEMPO 2304/2306 6000 -TSRA